Pelizeno — 2JAL2 — position and weather

sailwx.info

Track history (hours):
 
Tides and Currents Weather Stations Pressure Air Temp Water Temp Dewpoint Dewpoint Depression Visibility Wind Speed Wind Dir Waves Ship Positions

Pelizeno

Last reported at 2018-Feb-06 20:34 UTC. Time now 2018-Feb-20 10:10 UTC.
Position N 14°26' W 061°02'.
Warning: this ship's position is 13 days out of date.

Length 15 m.

Type: Sailing vessel. MMSI: 235114281.

Date/timePositionNaut miles runAvg speedWind from/ knotsBaromVisibWave heightAir tempDewpointWater temp
2018-Feb-06 20:34N 14°26' W 061°02'1 8.6
2018-Feb-06 20:30N 14°26' W 061°02'4 7.9
2018-Feb-06 20:00N 14°26' W 060°58'3 6.0
2018-Feb-06 19:30N 14°27' W 060°55'1 0.1
2018-Feb-05 14:45N 14°27' W 060°53'0 0.0
2018-Feb-05 14:30N 14°27' W 060°53'0 0.0
2018-Feb-04 20:43N 14°27' W 060°53'0 0.1
2018-Feb-04 18:54N 14°26' W 060°53'0 0.0
2018-Feb-04 18:30N 14°26' W 060°53'0 0.0
2018-Feb-04 17:57N 14°26' W 060°53'2 3.6
2018-Feb-04 17:30N 14°28' W 060°52'0 0.2
2018-Feb-04 15:28N 14°28' W 060°53'0 0.0
2018-Feb-04 14:58N 14°28' W 060°53'  
2018-Jan-31 16:48N 14°28' W 060°53'0 0.2
2018-Jan-31 16:30N 14°28' W 060°53'  
Track history (hours):
 
Tides and Currents Weather Stations Pressure Air Temp Water Temp Dewpoint Dewpoint Depression Visibility Wind Speed Wind Dir Waves Ship Positions

Pelizeno

Last reported at 2018-Feb-06 20:34 UTC. Time now 2018-Feb-20 10:10 UTC.
Position N 14°26' W 061°02'.
Warning: this ship's position is 13 days out of date.

Length 15 m.

Type: Sailing vessel. MMSI: 235114281.

Date/timePositionNaut miles runAvg speedWind from/ knotsBaromVisibWave heightAir tempDewpointWater temp
2018-Feb-06 20:34N 14°26' W 061°02'1 8.6
2018-Feb-06 20:30N 14°26' W 061°02'4 7.9
2018-Feb-06 20:00N 14°26' W 060°58'3 6.0
2018-Feb-06 19:30N 14°27' W 060°55'1 0.1
2018-Feb-05 14:45N 14°27' W 060°53'0 0.0
2018-Feb-05 14:30N 14°27' W 060°53'0 0.0
2018-Feb-04 20:43N 14°27' W 060°53'0 0.1
2018-Feb-04 18:54N 14°26' W 060°53'0 0.0
2018-Feb-04 18:30N 14°26' W 060°53'0 0.0
2018-Feb-04 17:57N 14°26' W 060°53'2 3.6
2018-Feb-04 17:30N 14°28' W 060°52'0 0.2
2018-Feb-04 15:28N 14°28' W 060°53'0 0.0
2018-Feb-04 14:58N 14°28' W 060°53'  
2018-Jan-31 16:48N 14°28' W 060°53'0 0.2
2018-Jan-31 16:30N 14°28' W 060°53'  

Dump ship's entire track history